sensor_id;sensor_type;location;lat;lon;timestamp;temperature;humidity
4677;DHT22;2352;48.180;11.478;2024-02-28T00:00:27;8.00;70.70
4677;DHT22;2352;48.180;11.478;2024-02-28T00:05:31;8.10;70.50
4677;DHT22;2352;48.180;11.478;2024-02-28T00:10:35;8.10;70.60
4677;DHT22;2352;48.180;11.478;2024-02-28T00:15:38;8.20;70.50
4677;DHT22;2352;48.180;11.478;2024-02-28T00:20:41;8.10;70.80
4677;DHT22;2352;48.180;11.478;2024-02-28T00:25:46;8.10;70.80
4677;DHT22;2352;48.180;11.478;2024-02-28T00:30:48;8.10;70.70
4677;DHT22;2352;48.180;11.478;2024-02-28T00:35:51;8.10;70.80
4677;DHT22;2352;48.180;11.478;2024-02-28T00:40:56;8.10;71.00
4677;DHT22;2352;48.180;11.478;2024-02-28T00:45:59;8.10;71.00
4677;DHT22;2352;48.180;11.478;2024-02-28T00:51:03;8.00;71.20
4677;DHT22;2352;48.180;11.478;2024-02-28T00:56:07;8.20;70.90
4677;DHT22;2352;48.180;11.478;2024-02-28T01:01:10;8.10;71.10
4677;DHT22;2352;48.180;11.478;2024-02-28T01:06:13;8.10;71.20
4677;DHT22;2352;48.180;11.478;2024-02-28T01:11:19;8.10;71.20
4677;DHT22;2352;48.180;11.478;2024-02-28T01:16:21;8.20;71.20
4677;DHT22;2352;48.180;11.478;2024-02-28T01:21:24;8.10;71.30
4677;DHT22;2352;48.180;11.478;2024-02-28T01:26:29;8.10;71.50
4677;DHT22;2352;48.180;11.478;2024-02-28T01:31:32;8.10;71.60
4677;DHT22;2352;48.180;11.478;2024-02-28T01:36:35;8.30;71.10
4677;DHT22;2352;48.180;11.478;2024-02-28T01:41:39;8.30;71.00
4677;DHT22;2352;48.180;11.478;2024-02-28T01:46:45;8.10;71.50
4677;DHT22;2352;48.180;11.478;2024-02-28T01:51:48;8.10;71.60
4677;DHT22;2352;48.180;11.478;2024-02-28T01:56:53;8.10;71.50
4677;DHT22;2352;48.180;11.478;2024-02-28T02:01:56;8.10;71.60
4677;DHT22;2352;48.180;11.478;2024-02-28T02:07:00;8.00;71.70
4677;DHT22;2352;48.180;11.478;2024-02-28T02:12:05;8.10;71.70
4677;DHT22;2352;48.180;11.478;2024-02-28T02:17:08;8.20;71.30
4677;DHT22;2352;48.180;11.478;2024-02-28T02:22:13;8.10;71.50
4677;DHT22;2352;48.180;11.478;2024-02-28T02:27:18;8.00;71.50
4677;DHT22;2352;48.180;11.478;2024-02-28T02:32:21;8.00;71.50
4677;DHT22;2352;48.180;11.478;2024-02-28T02:37:24;7.90;71.60
4677;DHT22;2352;48.180;11.478;2024-02-28T02:42:28;7.90;71.90
4677;DHT22;2352;48.180;11.478;2024-02-28T02:47:31;8.00;71.70
4677;DHT22;2352;48.180;11.478;2024-02-28T02:52:34;8.10;71.40
4677;DHT22;2352;48.180;11.478;2024-02-28T02:57:39;8.00;71.50
4677;DHT22;2352;48.180;11.478;2024-02-28T03:03:01;7.90;71.60
4677;DHT22;2352;48.180;11.478;2024-02-28T03:08:05;7.80;71.60
4677;DHT22;2352;48.180;11.478;2024-02-28T03:13:09;7.90;71.40
4677;DHT22;2352;48.180;11.478;2024-02-28T03:18:12;7.90;71.10
4677;DHT22;2352;48.180;11.478;2024-02-28T03:23:15;7.90;71.00
4677;DHT22;2352;48.180;11.478;2024-02-28T03:28:19;7.90;71.00
4677;DHT22;2352;48.180;11.478;2024-02-28T03:33:22;7.80;71.20
4677;DHT22;2352;48.180;11.478;2024-02-28T03:38:24;7.80;71.10
4677;DHT22;2352;48.180;11.478;2024-02-28T03:43:29;7.90;70.70
4677;DHT22;2352;48.180;11.478;2024-02-28T03:48:31;7.70;71.20
4677;DHT22;2352;48.180;11.478;2024-02-28T03:53:35;7.60;71.20
4677;DHT22;2352;48.180;11.478;2024-02-28T03:58:40;7.60;71.40
4677;DHT22;2352;48.180;11.478;2024-02-28T04:03:43;7.60;71.30
4677;DHT22;2352;48.180;11.478;2024-02-28T04:08:46;7.50;71.40
4677;DHT22;2352;48.180;11.478;2024-02-28T04:13:50;7.50;71.70
4677;DHT22;2352;48.180;11.478;2024-02-28T04:18:52;7.60;71.10
4677;DHT22;2352;48.180;11.478;2024-02-28T04:23:55;7.50;71.30
4677;DHT22;2352;48.180;11.478;2024-02-28T04:29:00;7.50;71.40
4677;DHT22;2352;48.180;11.478;2024-02-28T04:34:06;7.40;71.60
4677;DHT22;2352;48.180;11.478;2024-02-28T04:39:09;7.40;71.50
4677;DHT22;2352;48.180;11.478;2024-02-28T04:44:13;7.30;72.00
4677;DHT22;2352;48.180;11.478;2024-02-28T04:49:16;7.30;71.80
4677;DHT22;2352;48.180;11.478;2024-02-28T04:54:19;7.40;71.50
4677;DHT22;2352;48.180;11.478;2024-02-28T04:59:23;7.40;71.70
4677;DHT22;2352;48.180;11.478;2024-02-28T05:04:26;7.40;71.70
4677;DHT22;2352;48.180;11.478;2024-02-28T05:09:29;7.40;71.30
4677;DHT22;2352;48.180;11.478;2024-02-28T05:14:33;7.40;71.40
4677;DHT22;2352;48.180;11.478;2024-02-28T05:19:36;7.60;71.00
4677;DHT22;2352;48.180;11.478;2024-02-28T05:24:39;7.40;71.50
4677;DHT22;2352;48.180;11.478;2024-02-28T05:29:47;7.40;71.50
4677;DHT22;2352;48.180;11.478;2024-02-28T05:34:50;7.40;71.30
4677;DHT22;2352;48.180;11.478;2024-02-28T05:39:53;7.40;71.50
4677;DHT22;2352;48.180;11.478;2024-02-28T05:44:57;7.30;71.70
4677;DHT22;2352;48.180;11.478;2024-02-28T05:50:00;7.40;71.40
4677;DHT22;2352;48.180;11.478;2024-02-28T05:55:03;7.40;71.50
4677;DHT22;2352;48.180;11.478;2024-02-28T06:00:09;7.30;71.90
4677;DHT22;2352;48.180;11.478;2024-02-28T06:05:12;7.40;71.80
4677;DHT22;2352;48.180;11.478;2024-02-28T06:10:15;7.40;71.50
4677;DHT22;2352;48.180;11.478;2024-02-28T06:15:19;7.60;71.30
4677;DHT22;2352;48.180;11.478;2024-02-28T06:20:22;7.40;71.50
4677;DHT22;2352;48.180;11.478;2024-02-28T06:25:25;7.50;71.50
4677;DHT22;2352;48.180;11.478;2024-02-28T06:30:31;7.40;71.90
4677;DHT22;2352;48.180;11.478;2024-02-28T06:35:34;7.40;71.80
4677;DHT22;2352;48.180;11.478;2024-02-28T06:40:37;7.40;71.90
4677;DHT22;2352;48.180;11.478;2024-02-28T06:45:41;7.60;71.70
4677;DHT22;2352;48.180;11.478;2024-02-28T06:50:44;7.50;71.70
4677;DHT22;2352;48.180;11.478;2024-02-28T06:55:47;7.50;71.50
4677;DHT22;2352;48.180;11.478;2024-02-28T07:00:52;7.60;71.40
4677;DHT22;2352;48.180;11.478;2024-02-28T07:05:57;7.60;71.40
4677;DHT22;2352;48.180;11.478;2024-02-28T07:11:00;7.60;71.40
4677;DHT22;2352;48.180;11.478;2024-02-28T07:16:06;7.50;71.50
4677;DHT22;2352;48.180;11.478;2024-02-28T07:21:09;7.50;71.70
4677;DHT22;2352;48.180;11.478;2024-02-28T07:26:14;7.60;71.40
4677;DHT22;2352;48.180;11.478;2024-02-28T07:31:29;7.50;71.80
4677;DHT22;2352;48.180;11.478;2024-02-28T07:36:32;7.60;71.40
4677;DHT22;2352;48.180;11.478;2024-02-28T07:41:35;7.60;71.60
4677;DHT22;2352;48.180;11.478;2024-02-28T07:46:41;7.70;71.30
4677;DHT22;2352;48.180;11.478;2024-02-28T07:51:44;7.70;71.30
4677;DHT22;2352;48.180;11.478;2024-02-28T07:56:48;7.70;71.30
4677;DHT22;2352;48.180;11.478;2024-02-28T08:01:52;7.80;71.10
4677;DHT22;2352;48.180;11.478;2024-02-28T08:06:55;7.70;71.30
4677;DHT22;2352;48.180;11.478;2024-02-28T08:11:58;7.80;71.00
4677;DHT22;2352;48.180;11.478;2024-02-28T08:17:04;7.90;70.90
4677;DHT22;2352;48.180;11.478;2024-02-28T08:22:07;7.70;71.30
4677;DHT22;2352;48.180;11.478;2024-02-28T08:27:10;8.00;70.60
4677;DHT22;2352;48.180;11.478;2024-02-28T08:32:14;7.80;71.00
4677;DHT22;2352;48.180;11.478;2024-02-28T08:37:17;7.80;71.10
4677;DHT22;2352;48.180;11.478;2024-02-28T08:42:20;7.80;71.50
4677;DHT22;2352;48.180;11.478;2024-02-28T08:47:24;7.90;71.10
4677;DHT22;2352;48.180;11.478;2024-02-28T08:52:27;7.90;70.80
4677;DHT22;2352;48.180;11.478;2024-02-28T08:57:30;7.90;71.10
4677;DHT22;2352;48.180;11.478;2024-02-28T09:02:35;7.90;71.10
4677;DHT22;2352;48.180;11.478;2024-02-28T09:07:38;7.80;70.90
4677;DHT22;2352;48.180;11.478;2024-02-28T09:12:41;7.90;71.20
4677;DHT22;2352;48.180;11.478;2024-02-28T09:17:46;7.90;71.20
4677;DHT22;2352;48.180;11.478;2024-02-28T09:22:48;7.90;71.00
4677;DHT22;2352;48.180;11.478;2024-02-28T09:27:51;7.90;71.00
4677;DHT22;2352;48.180;11.478;2024-02-28T09:32:56;7.90;70.90
4677;DHT22;2352;48.180;11.478;2024-02-28T09:37:59;7.80;71.30
4677;DHT22;2352;48.180;11.478;2024-02-28T09:43:02;8.00;70.80
4677;DHT22;2352;48.180;11.478;2024-02-28T09:48:09;8.00;70.50
4677;DHT22;2352;48.180;11.478;2024-02-28T09:53:13;8.00;70.50
4677;DHT22;2352;48.180;11.478;2024-02-28T09:58:17;8.00;70.80
4677;DHT22;2352;48.180;11.478;2024-02-28T10:03:22;8.20;70.30
4677;DHT22;2352;48.180;11.478;2024-02-28T10:08:27;8.10;70.60
4677;DHT22;2352;48.180;11.478;2024-02-28T10:13:31;8.20;70.30
4677;DHT22;2352;48.180;11.478;2024-02-28T10:18:35;8.10;70.20
4677;DHT22;2352;48.180;11.478;2024-02-28T10:23:38;8.10;70.60
4677;DHT22;2352;48.180;11.478;2024-02-28T10:28:41;8.20;70.10
4677;DHT22;2352;48.180;11.478;2024-02-28T10:33:46;8.10;70.40
4677;DHT22;2352;48.180;11.478;2024-02-28T10:38:49;8.40;72.00
4677;DHT22;2352;48.180;11.478;2024-02-28T10:43:53;8.40;70.20
4677;DHT22;2352;48.180;11.478;2024-02-28T10:48:58;8.70;69.20
4677;DHT22;2352;48.180;11.478;2024-02-28T10:54:07;8.40;69.80
4677;DHT22;2352;48.180;11.478;2024-02-28T10:59:12;8.50;69.70
4677;DHT22;2352;48.180;11.478;2024-02-28T11:04:17;8.40;69.30
4677;DHT22;2352;48.180;11.478;2024-02-28T11:09:20;8.40;69.80
4677;DHT22;2352;48.180;11.478;2024-02-28T11:14:25;8.40;69.60
4677;DHT22;2352;48.180;11.478;2024-02-28T11:19:32;8.40;69.80
4677;DHT22;2352;48.180;11.478;2024-02-28T11:24:37;8.50;69.70
4677;DHT22;2352;48.180;11.478;2024-02-28T11:29:40;8.50;69.50
4677;DHT22;2352;48.180;11.478;2024-02-28T11:34:44;8.30;70.10
4677;DHT22;2352;48.180;11.478;2024-02-28T11:39:48;8.40;69.90
4677;DHT22;2352;48.180;11.478;2024-02-28T11:44:54;8.40;70.10
4677;DHT22;2352;48.180;11.478;2024-02-28T11:50:05;8.40;69.90
4677;DHT22;2352;48.180;11.478;2024-02-28T11:55:11;8.50;70.10
4677;DHT22;2352;48.180;11.478;2024-02-28T12:00:14;8.50;70.00
4677;DHT22;2352;48.180;11.478;2024-02-28T12:05:19;8.70;69.50
4677;DHT22;2352;48.180;11.478;2024-02-28T12:10:22;8.70;68.90
4677;DHT22;2352;48.180;11.478;2024-02-28T12:15:27;8.70;69.20
4677;DHT22;2352;48.180;11.478;2024-02-28T12:20:32;8.50;69.40
4677;DHT22;2352;48.180;11.478;2024-02-28T12:25:35;8.60;69.60
4677;DHT22;2352;48.180;11.478;2024-02-28T12:30:40;8.70;69.20
4677;DHT22;2352;48.180;11.478;2024-02-28T12:35:46;8.90;68.60
4677;DHT22;2352;48.180;11.478;2024-02-28T12:40:48;8.80;68.50
4677;DHT22;2352;48.180;11.478;2024-02-28T12:45:51;8.80;68.50
4677;DHT22;2352;48.180;11.478;2024-02-28T12:50:56;8.90;67.90
4677;DHT22;2352;48.180;11.478;2024-02-28T12:55:59;8.70;68.50
4677;DHT22;2352;48.180;11.478;2024-02-28T13:01:02;8.90;68.20
4677;DHT22;2352;48.180;11.478;2024-02-28T13:06:08;8.90;68.10
4677;DHT22;2352;48.180;11.478;2024-02-28T13:11:10;8.90;68.40
4677;DHT22;2352;48.180;11.478;2024-02-28T13:16:14;8.90;67.50
4677;DHT22;2352;48.180;11.478;2024-02-28T13:21:18;9.00;67.80
4677;DHT22;2352;48.180;11.478;2024-02-28T13:26:21;9.00;67.70
4677;DHT22;2352;48.180;11.478;2024-02-28T13:31:24;9.10;67.50
4677;DHT22;2352;48.180;11.478;2024-02-28T13:36:29;9.20;67.50
4677;DHT22;2352;48.180;11.478;2024-02-28T13:41:34;9.20;67.50
4677;DHT22;2352;48.180;11.478;2024-02-28T13:46:37;9.00;68.00
4677;DHT22;2352;48.180;11.478;2024-02-28T13:51:44;9.10;67.50
4677;DHT22;2352;48.180;11.478;2024-02-28T13:56:47;8.90;68.10
4677;DHT22;2352;48.180;11.478;2024-02-28T14:01:50;9.10;67.70
4677;DHT22;2352;48.180;11.478;2024-02-28T14:06:55;9.10;67.70
4677;DHT22;2352;48.180;11.478;2024-02-28T14:11:58;8.90;68.50
4677;DHT22;2352;48.180;11.478;2024-02-28T14:17:01;9.00;68.40
4677;DHT22;2352;48.180;11.478;2024-02-28T14:22:07;9.20;68.20
4677;DHT22;2352;48.180;11.478;2024-02-28T14:27:11;9.10;68.30
4677;DHT22;2352;48.180;11.478;2024-02-28T14:32:15;9.00;68.80
4677;DHT22;2352;48.180;11.478;2024-02-28T14:37:19;9.20;68.30
4677;DHT22;2352;48.180;11.478;2024-02-28T14:42:22;9.30;68.00
4677;DHT22;2352;48.180;11.478;2024-02-28T14:47:25;9.20;68.00
4677;DHT22;2352;48.180;11.478;2024-02-28T14:52:29;9.10;68.00
4677;DHT22;2352;48.180;11.478;2024-02-28T14:57:33;9.10;68.10
4677;DHT22;2352;48.180;11.478;2024-02-28T15:02:37;9.10;67.90
4677;DHT22;2352;48.180;11.478;2024-02-28T15:07:41;8.90;67.90
4677;DHT22;2352;48.180;11.478;2024-02-28T15:12:44;8.90;68.70
4677;DHT22;2352;48.180;11.478;2024-02-28T15:17:47;9.00;68.00
4677;DHT22;2352;48.180;11.478;2024-02-28T15:22:51;9.00;68.30
4677;DHT22;2352;48.180;11.478;2024-02-28T15:27:54;9.10;67.80
4677;DHT22;2352;48.180;11.478;2024-02-28T15:32:58;9.00;67.90
4677;DHT22;2352;48.180;11.478;2024-02-28T15:38:02;9.00;67.40
4677;DHT22;2352;48.180;11.478;2024-02-28T15:43:05;9.00;67.80
4677;DHT22;2352;48.180;11.478;2024-02-28T15:48:08;9.00;67.50
4677;DHT22;2352;48.180;11.478;2024-02-28T15:53:12;8.90;67.60
4677;DHT22;2352;48.180;11.478;2024-02-28T15:58:16;8.90;68.20
4677;DHT22;2352;48.180;11.478;2024-02-28T16:03:19;9.10;68.00
4677;DHT22;2352;48.180;11.478;2024-02-28T16:08:23;9.00;68.20
4677;DHT22;2352;48.180;11.478;2024-02-28T16:13:26;9.00;68.20
4677;DHT22;2352;48.180;11.478;2024-02-28T16:18:30;9.10;67.90
4677;DHT22;2352;48.180;11.478;2024-02-28T16:23:34;8.90;67.60
4677;DHT22;2352;48.180;11.478;2024-02-28T16:28:37;9.00;67.80
4677;DHT22;2352;48.180;11.478;2024-02-28T16:33:40;8.90;67.70
4677;DHT22;2352;48.180;11.478;2024-02-28T16:38:45;8.90;67.80
4677;DHT22;2352;48.180;11.478;2024-02-28T16:43:49;8.90;68.00
4677;DHT22;2352;48.180;11.478;2024-02-28T16:48:56;8.90;68.50
4677;DHT22;2352;48.180;11.478;2024-02-28T16:54:01;8.90;68.30
4677;DHT22;2352;48.180;11.478;2024-02-28T16:59:04;8.90;68.40
4677;DHT22;2352;48.180;11.478;2024-02-28T17:04:08;8.90;68.30
4677;DHT22;2352;48.180;11.478;2024-02-28T17:09:12;8.80;68.50
4677;DHT22;2352;48.180;11.478;2024-02-28T17:14:15;8.70;68.40
4677;DHT22;2352;48.180;11.478;2024-02-28T17:19:19;8.60;68.60
4677;DHT22;2352;48.180;11.478;2024-02-28T17:24:23;8.50;68.90
4677;DHT22;2352;48.180;11.478;2024-02-28T17:29:27;8.50;68.60
4677;DHT22;2352;48.180;11.478;2024-02-28T17:34:30;8.50;68.80
4677;DHT22;2352;48.180;11.478;2024-02-28T17:39:34;8.50;68.80
4677;DHT22;2352;48.180;11.478;2024-02-28T17:44:38;8.60;68.50
4677;DHT22;2352;48.180;11.478;2024-02-28T17:49:41;8.50;68.50
4677;DHT22;2352;48.180;11.478;2024-02-28T17:54:45;8.50;68.50
4677;DHT22;2352;48.180;11.478;2024-02-28T17:59:49;8.40;68.80
4677;DHT22;2352;48.180;11.478;2024-02-28T18:04:52;8.40;68.60
4677;DHT22;2352;48.180;11.478;2024-02-28T18:09:56;8.30;68.70
4677;DHT22;2352;48.180;11.478;2024-02-28T18:14:59;8.40;68.80
4677;DHT22;2352;48.180;11.478;2024-02-28T18:20:02;8.30;69.10
4677;DHT22;2352;48.180;11.478;2024-02-28T18:25:10;8.40;69.30
4677;DHT22;2352;48.180;11.478;2024-02-28T18:30:14;8.30;69.30
4677;DHT22;2352;48.180;11.478;2024-02-28T18:35:17;8.40;69.00
4677;DHT22;2352;48.180;11.478;2024-02-28T18:40:21;8.30;69.40
4677;DHT22;2352;48.180;11.478;2024-02-28T18:45:28;8.20;69.40
4677;DHT22;2352;48.180;11.478;2024-02-28T18:50:31;8.20;69.60
4677;DHT22;2352;48.180;11.478;2024-02-28T18:55:35;8.20;69.50
4677;DHT22;2352;48.180;11.478;2024-02-28T19:00:38;8.20;69.70
4677;DHT22;2352;48.180;11.478;2024-02-28T19:05:48;8.20;69.60
4677;DHT22;2352;48.180;11.478;2024-02-28T19:10:52;8.10;69.70
4677;DHT22;2352;48.180;11.478;2024-02-28T19:15:55;8.30;69.50
4677;DHT22;2352;48.180;11.478;2024-02-28T19:21:00;8.20;69.40
4677;DHT22;2352;48.180;11.478;2024-02-28T19:26:05;8.20;69.70
4677;DHT22;2352;48.180;11.478;2024-02-28T19:31:08;8.10;69.70
4677;DHT22;2352;48.180;11.478;2024-02-28T19:36:11;8.10;69.80
4677;DHT22;2352;48.180;11.478;2024-02-28T19:41:16;8.10;69.80
4677;DHT22;2352;48.180;11.478;2024-02-28T19:46:19;8.10;69.80
4677;DHT22;2352;48.180;11.478;2024-02-28T19:51:21;8.00;69.80
4677;DHT22;2352;48.180;11.478;2024-02-28T19:56:26;8.00;70.10
4677;DHT22;2352;48.180;11.478;2024-02-28T20:01:29;8.10;69.80
4677;DHT22;2352;48.180;11.478;2024-02-28T20:06:32;8.10;69.80
4677;DHT22;2352;48.180;11.478;2024-02-28T20:11:44;8.10;69.70
4677;DHT22;2352;48.180;11.478;2024-02-28T20:16:47;7.90;70.00
4677;DHT22;2352;48.180;11.478;2024-02-28T20:21:50;8.00;70.40
4677;DHT22;2352;48.180;11.478;2024-02-28T20:26:55;8.00;70.00
4677;DHT22;2352;48.180;11.478;2024-02-28T20:31:57;8.00;70.20
4677;DHT22;2352;48.180;11.478;2024-02-28T20:37:00;8.10;70.20
4677;DHT22;2352;48.180;11.478;2024-02-28T20:42:05;8.10;69.70
4677;DHT22;2352;48.180;11.478;2024-02-28T20:47:08;8.00;69.40
4677;DHT22;2352;48.180;11.478;2024-02-28T20:52:11;8.10;69.70
4677;DHT22;2352;48.180;11.478;2024-02-28T20:57:15;8.10;69.80
4677;DHT22;2352;48.180;11.478;2024-02-28T21:02:18;8.00;69.50
4677;DHT22;2352;48.180;11.478;2024-02-28T21:07:21;7.90;69.70
4677;DHT22;2352;48.180;11.478;2024-02-28T21:12:46;7.90;69.90
4677;DHT22;2352;48.180;11.478;2024-02-28T21:17:49;7.90;69.70
4677;DHT22;2352;48.180;11.478;2024-02-28T21:22:52;7.90;69.50
4677;DHT22;2352;48.180;11.478;2024-02-28T21:27:56;7.90;69.70
4677;DHT22;2352;48.180;11.478;2024-02-28T21:32:59;7.90;69.60
4677;DHT22;2352;48.180;11.478;2024-02-28T21:38:02;7.90;69.40
4677;DHT22;2352;48.180;11.478;2024-02-28T21:43:07;7.90;69.30
4677;DHT22;2352;48.180;11.478;2024-02-28T21:48:10;7.90;69.50
4677;DHT22;2352;48.180;11.478;2024-02-28T21:53:16;7.90;69.30
4677;DHT22;2352;48.180;11.478;2024-02-28T21:58:20;7.90;69.00
4677;DHT22;2352;48.180;11.478;2024-02-28T22:03:23;7.80;68.70
4677;DHT22;2352;48.180;11.478;2024-02-28T22:08:26;7.80;68.60
4677;DHT22;2352;48.180;11.478;2024-02-28T22:13:30;7.80;68.80
4677;DHT22;2352;48.180;11.478;2024-02-28T22:18:33;7.80;69.10
4677;DHT22;2352;48.180;11.478;2024-02-28T22:23:36;7.80;69.20
4677;DHT22;2352;48.180;11.478;2024-02-28T22:28:41;7.80;69.00
4677;DHT22;2352;48.180;11.478;2024-02-28T22:33:44;7.80;69.00
4677;DHT22;2352;48.180;11.478;2024-02-28T22:38:47;7.80;69.20
4677;DHT22;2352;48.180;11.478;2024-02-28T22:43:52;7.80;69.20
4677;DHT22;2352;48.180;11.478;2024-02-28T22:48:55;7.80;69.50
4677;DHT22;2352;48.180;11.478;2024-02-28T22:53:59;7.80;69.40
4677;DHT22;2352;48.180;11.478;2024-02-28T22:59:04;7.70;69.70
4677;DHT22;2352;48.180;11.478;2024-02-28T23:04:07;7.80;69.50
4677;DHT22;2352;48.180;11.478;2024-02-28T23:09:10;7.80;69.40
4677;DHT22;2352;48.180;11.478;2024-02-28T23:14:17;7.80;69.50
4677;DHT22;2352;48.180;11.478;2024-02-28T23:19:20;7.80;69.80
4677;DHT22;2352;48.180;11.478;2024-02-28T23:24:23;7.80;69.30
4677;DHT22;2352;48.180;11.478;2024-02-28T23:29:27;7.80;69.30
4677;DHT22;2352;48.180;11.478;2024-02-28T23:34:31;7.80;69.00
4677;DHT22;2352;48.180;11.478;2024-02-28T23:39:35;7.80;69.10
4677;DHT22;2352;48.180;11.478;2024-02-28T23:44:39;7.70;69.00
4677;DHT22;2352;48.180;11.478;2024-02-28T23:49:42;7.70;69.20
4677;DHT22;2352;48.180;11.478;2024-02-28T23:54:45;7.70;69.10
4677;DHT22;2352;48.180;11.478;2024-02-28T23:59:50;7.60;69.10
